sensor_id;sensor_type;location;lat;lon;timestamp;P1;durP1;ratioP1;P2;durP2;ratioP2
8462;SDS011;4268;52.506;13.462;2023-07-29T00:00:48;14.87;;;14.07;;
8462;SDS011;4268;52.506;13.462;2023-07-29T00:03:14;15.10;;;14.30;;
8462;SDS011;4268;52.506;13.462;2023-07-29T00:05:40;14.60;;;13.80;;
8462;SDS011;4268;52.506;13.462;2023-07-29T00:08:05;14.27;;;13.47;;
8462;SDS011;4268;52.506;13.462;2023-07-29T00:10:32;15.73;;;14.83;;
8462;SDS011;4268;52.506;13.462;2023-07-29T00:13:00;16.57;;;15.67;;
8462;SDS011;4268;52.506;13.462;2023-07-29T00:15:26;17.10;;;16.27;;
8462;SDS011;4268;52.506;13.462;2023-07-29T00:17:51;16.07;;;15.17;;
8462;SDS011;4268;52.506;13.462;2023-07-29T00:20:17;15.50;;;14.60;;
8462;SDS011;4268;52.506;13.462;2023-07-29T00:22:42;15.03;;;14.23;;
8462;SDS011;4268;52.506;13.462;2023-07-29T00:25:08;16.77;;;15.73;;
8462;SDS011;4268;52.506;13.462;2023-07-29T00:27:34;17.47;;;16.43;;
8462;SDS011;4268;52.506;13.462;2023-07-29T00:29:59;20.60;;;19.40;;
8462;SDS011;4268;52.506;13.462;2023-07-29T00:32:27;19.57;;;18.47;;
8462;SDS011;4268;52.506;13.462;2023-07-29T00:34:54;19.50;;;18.40;;
8462;SDS011;4268;52.506;13.462;2023-07-29T00:37:19;19.97;;;18.83;;
8462;SDS011;4268;52.506;13.462;2023-07-29T00:39:45;19.93;;;18.73;;
8462;SDS011;4268;52.506;13.462;2023-07-29T00:42:11;19.30;;;18.20;;
8462;SDS011;4268;52.506;13.462;2023-07-29T00:44:37;20.00;;;18.83;;
8462;SDS011;4268;52.506;13.462;2023-07-29T00:47:02;22.37;;;21.17;;
8462;SDS011;4268;52.506;13.462;2023-07-29T00:49:31;19.97;;;18.80;;
8462;SDS011;4268;52.506;13.462;2023-07-29T00:51:57;19.93;;;18.83;;
8462;SDS011;4268;52.506;13.462;2023-07-29T00:54:23;18.67;;;17.57;;
8462;SDS011;4268;52.506;13.462;2023-07-29T00:56:49;16.83;;;15.90;;
8462;SDS011;4268;52.506;13.462;2023-07-29T00:59:15;17.33;;;16.33;;
8462;SDS011;4268;52.506;13.462;2023-07-29T01:01:40;16.60;;;15.60;;
8462;SDS011;4268;52.506;13.462;2023-07-29T01:04:07;16.10;;;15.23;;
8462;SDS011;4268;52.506;13.462;2023-07-29T01:06:41;16.27;;;15.37;;
8462;SDS011;4268;52.506;13.462;2023-07-29T01:09:30;16.27;;;15.17;;
8462;SDS011;4268;52.506;13.462;2023-07-29T01:12:20;15.30;;;14.20;;
8462;SDS011;4268;52.506;13.462;2023-07-29T01:17:38;16.10;;;15.13;;
8462;SDS011;4268;52.506;13.462;2023-07-29T01:20:08;14.53;;;13.63;;
8462;SDS011;4268;52.506;13.462;2023-07-29T01:22:36;15.57;;;14.57;;
8462;SDS011;4268;52.506;13.462;2023-07-29T01:25:03;15.57;;;14.57;;
8462;SDS011;4268;52.506;13.462;2023-07-29T01:27:29;14.90;;;14.00;;
8462;SDS011;4268;52.506;13.462;2023-07-29T01:29:55;15.53;;;14.60;;
8462;SDS011;4268;52.506;13.462;2023-07-29T01:38:00;16.80;;;15.80;;
8462;SDS011;4268;52.506;13.462;2023-07-29T01:40:30;16.83;;;15.77;;
8462;SDS011;4268;52.506;13.462;2023-07-29T01:42:56;17.50;;;16.43;;
8462;SDS011;4268;52.506;13.462;2023-07-29T01:45:23;17.60;;;16.57;;
8462;SDS011;4268;52.506;13.462;2023-07-29T01:47:50;16.73;;;15.73;;
8462;SDS011;4268;52.506;13.462;2023-07-29T01:50:16;16.27;;;15.23;;
8462;SDS011;4268;52.506;13.462;2023-07-29T01:52:41;17.20;;;16.20;;
8462;SDS011;4268;52.506;13.462;2023-07-29T01:55:07;18.30;;;17.10;;
8462;SDS011;4268;52.506;13.462;2023-07-29T01:57:33;17.60;;;16.50;;
8462;SDS011;4268;52.506;13.462;2023-07-29T01:59:58;17.10;;;16.00;;
8462;SDS011;4268;52.506;13.462;2023-07-29T02:02:24;17.20;;;16.20;;
8462;SDS011;4268;52.506;13.462;2023-07-29T02:04:50;15.77;;;14.87;;
8462;SDS011;4268;52.506;13.462;2023-07-29T02:07:17;14.83;;;13.83;;
8462;SDS011;4268;52.506;13.462;2023-07-29T02:09:44;14.30;;;13.50;;
8462;SDS011;4268;52.506;13.462;2023-07-29T02:12:10;13.33;;;12.53;;
8462;SDS011;4268;52.506;13.462;2023-07-29T02:14:36;13.63;;;12.87;;
8462;SDS011;4268;52.506;13.462;2023-07-29T02:17:01;15.20;;;14.30;;
8462;SDS011;4268;52.506;13.462;2023-07-29T02:19:27;16.63;;;15.53;;
8462;SDS011;4268;52.506;13.462;2023-07-29T02:21:52;15.43;;;14.53;;
8462;SDS011;4268;52.506;13.462;2023-07-29T02:24:18;16.73;;;15.63;;
8462;SDS011;4268;52.506;13.462;2023-07-29T02:26:44;14.50;;;13.50;;
8462;SDS011;4268;52.506;13.462;2023-07-29T02:29:10;14.23;;;13.30;;
8462;SDS011;4268;52.506;13.462;2023-07-29T02:31:35;14.13;;;13.10;;
8462;SDS011;4268;52.506;13.462;2023-07-29T02:34:02;13.37;;;12.37;;
8462;SDS011;4268;52.506;13.462;2023-07-29T02:36:28;12.90;;;12.10;;
8462;SDS011;4268;52.506;13.462;2023-07-29T02:38:54;13.53;;;12.63;;
8462;SDS011;4268;52.506;13.462;2023-07-29T02:41:19;12.77;;;11.97;;
8462;SDS011;4268;52.506;13.462;2023-07-29T02:43:48;12.30;;;11.57;;
8462;SDS011;4268;52.506;13.462;2023-07-29T02:46:14;13.97;;;13.17;;
8462;SDS011;4268;52.506;13.462;2023-07-29T02:48:41;15.63;;;14.60;;
8462;SDS011;4268;52.506;13.462;2023-07-29T02:51:07;14.20;;;13.40;;
8462;SDS011;4268;52.506;13.462;2023-07-29T02:53:33;15.83;;;14.93;;
8462;SDS011;4268;52.506;13.462;2023-07-29T02:56:01;15.13;;;14.33;;
8462;SDS011;4268;52.506;13.462;2023-07-29T02:58:27;14.70;;;13.90;;
8462;SDS011;4268;52.506;13.462;2023-07-29T03:00:53;15.43;;;14.53;;
8462;SDS011;4268;52.506;13.462;2023-07-29T03:03:24;15.73;;;14.80;;
8462;SDS011;4268;52.506;13.462;2023-07-29T03:05:56;15.50;;;14.60;;
8462;SDS011;4268;52.506;13.462;2023-07-29T03:08:40;16.40;;;15.40;;
8462;SDS011;4268;52.506;13.462;2023-07-29T03:11:07;15.20;;;14.40;;
8462;SDS011;4268;52.506;13.462;2023-07-29T03:13:34;15.50;;;14.60;;
8462;SDS011;4268;52.506;13.462;2023-07-29T03:16:10;16.30;;;15.30;;
8462;SDS011;4268;52.506;13.462;2023-07-29T03:18:37;16.30;;;15.40;;
8462;SDS011;4268;52.506;13.462;2023-07-29T03:21:03;14.77;;;13.87;;
8462;SDS011;4268;52.506;13.462;2023-07-29T03:23:29;14.47;;;13.50;;
8462;SDS011;4268;52.506;13.462;2023-07-29T03:25:56;14.57;;;13.67;;
8462;SDS011;4268;52.506;13.462;2023-07-29T03:28:27;15.73;;;14.83;;
8462;SDS011;4268;52.506;13.462;2023-07-29T03:30:54;15.43;;;14.63;;
8462;SDS011;4268;52.506;13.462;2023-07-29T03:33:23;16.27;;;15.37;;
8462;SDS011;4268;52.506;13.462;2023-07-29T03:35:50;17.20;;;16.20;;
8462;SDS011;4268;52.506;13.462;2023-07-29T03:38:16;16.33;;;15.17;;
8462;SDS011;4268;52.506;13.462;2023-07-29T03:40:42;15.07;;;14.27;;
8462;SDS011;4268;52.506;13.462;2023-07-29T03:43:07;15.33;;;14.40;;
8462;SDS011;4268;52.506;13.462;2023-07-29T03:45:33;15.13;;;14.23;;
8462;SDS011;4268;52.506;13.462;2023-07-29T03:48:00;14.10;;;13.30;;
8462;SDS011;4268;52.506;13.462;2023-07-29T03:50:26;14.77;;;13.87;;
8462;SDS011;4268;52.506;13.462;2023-07-29T03:52:52;15.10;;;14.30;;
8462;SDS011;4268;52.506;13.462;2023-07-29T03:55:18;15.07;;;13.97;;
8462;SDS011;4268;52.506;13.462;2023-07-29T03:57:44;13.83;;;13.03;;
8462;SDS011;4268;52.506;13.462;2023-07-29T04:00:09;14.37;;;13.47;;
8462;SDS011;4268;52.506;13.462;2023-07-29T04:02:35;14.53;;;13.73;;
8462;SDS011;4268;52.506;13.462;2023-07-29T04:05:04;14.97;;;14.07;;
8462;SDS011;4268;52.506;13.462;2023-07-29T04:07:33;15.97;;;15.07;;
8462;SDS011;4268;52.506;13.462;2023-07-29T04:09:59;16.57;;;15.67;;
8462;SDS011;4268;52.506;13.462;2023-07-29T04:12:24;18.23;;;17.07;;
8462;SDS011;4268;52.506;13.462;2023-07-29T04:14:50;17.93;;;16.93;;
8462;SDS011;4268;52.506;13.462;2023-07-29T04:17:15;17.00;;;16.10;;
8462;SDS011;4268;52.506;13.462;2023-07-29T04:19:41;16.23;;;15.30;;
8462;SDS011;4268;52.506;13.462;2023-07-29T04:22:06;17.03;;;16.13;;
8462;SDS011;4268;52.506;13.462;2023-07-29T04:24:32;16.83;;;15.93;;
8462;SDS011;4268;52.506;13.462;2023-07-29T04:26:57;15.40;;;14.30;;
8462;SDS011;4268;52.506;13.462;2023-07-29T04:29:23;12.67;;;11.90;;
8462;SDS011;4268;52.506;13.462;2023-07-29T04:31:52;12.30;;;11.50;;
8462;SDS011;4268;52.506;13.462;2023-07-29T04:34:18;13.10;;;12.20;;
8462;SDS011;4268;52.506;13.462;2023-07-29T04:36:44;13.57;;;12.77;;
8462;SDS011;4268;52.506;13.462;2023-07-29T04:39:10;11.27;;;10.57;;
8462;SDS011;4268;52.506;13.462;2023-07-29T04:41:36;11.43;;;10.83;;
8462;SDS011;4268;52.506;13.462;2023-07-29T04:44:02;12.63;;;11.87;;
8462;SDS011;4268;52.506;13.462;2023-07-29T04:46:27;11.67;;;10.97;;
8462;SDS011;4268;52.506;13.462;2023-07-29T04:48:53;11.83;;;11.20;;
8462;SDS011;4268;52.506;13.462;2023-07-29T04:51:18;12.80;;;11.90;;
8462;SDS011;4268;52.506;13.462;2023-07-29T04:53:44;11.60;;;10.90;;
8462;SDS011;4268;52.506;13.462;2023-07-29T04:56:10;10.30;;;9.70;;
8462;SDS011;4268;52.506;13.462;2023-07-29T04:58:36;10.17;;;9.57;;
8462;SDS011;4268;52.506;13.462;2023-07-29T05:01:02;10.60;;;10.00;;
8462;SDS011;4268;52.506;13.462;2023-07-29T05:03:28;10.00;;;9.47;;
8462;SDS011;4268;52.506;13.462;2023-07-29T05:05:53;11.33;;;10.63;;
8462;SDS011;4268;52.506;13.462;2023-07-29T05:08:20;11.53;;;10.83;;
8462;SDS011;4268;52.506;13.462;2023-07-29T05:10:49;13.33;;;12.63;;
8462;SDS011;4268;52.506;13.462;2023-07-29T05:13:16;14.13;;;13.33;;
8462;SDS011;4268;52.506;13.462;2023-07-29T05:15:41;13.87;;;13.13;;
8462;SDS011;4268;52.506;13.462;2023-07-29T05:18:07;9.93;;;9.27;;
8462;SDS011;4268;52.506;13.462;2023-07-29T05:20:33;8.73;;;8.13;;
8462;SDS011;4268;52.506;13.462;2023-07-29T05:22:58;7.50;;;7.00;;
8462;SDS011;4268;52.506;13.462;2023-07-29T05:25:24;7.97;;;7.53;;
8462;SDS011;4268;52.506;13.462;2023-07-29T05:27:49;7.93;;;7.43;;
8462;SDS011;4268;52.506;13.462;2023-07-29T05:30:15;7.37;;;6.87;;
8462;SDS011;4268;52.506;13.462;2023-07-29T05:32:41;8.00;;;7.50;;
8462;SDS011;4268;52.506;13.462;2023-07-29T05:35:06;7.20;;;6.80;;
8462;SDS011;4268;52.506;13.462;2023-07-29T05:37:32;6.83;;;6.43;;
8462;SDS011;4268;52.506;13.462;2023-07-29T05:39:58;6.17;;;5.77;;
8462;SDS011;4268;52.506;13.462;2023-07-29T05:42:23;7.33;;;6.77;;
8462;SDS011;4268;52.506;13.462;2023-07-29T05:44:49;7.07;;;6.50;;
8462;SDS011;4268;52.506;13.462;2023-07-29T05:47:15;6.30;;;5.87;;
8462;SDS011;4268;52.506;13.462;2023-07-29T05:49:40;5.67;;;5.27;;
8462;SDS011;4268;52.506;13.462;2023-07-29T05:52:06;7.03;;;6.53;;
8462;SDS011;4268;52.506;13.462;2023-07-29T05:54:32;6.80;;;6.40;;
8462;SDS011;4268;52.506;13.462;2023-07-29T05:56:58;7.37;;;6.90;;
8462;SDS011;4268;52.506;13.462;2023-07-29T05:59:23;7.33;;;6.83;;
8462;SDS011;4268;52.506;13.462;2023-07-29T06:01:49;6.90;;;6.50;;
8462;SDS011;4268;52.506;13.462;2023-07-29T06:04:14;6.23;;;5.83;;
8462;SDS011;4268;52.506;13.462;2023-07-29T06:06:40;6.70;;;6.30;;
8462;SDS011;4268;52.506;13.462;2023-07-29T06:09:06;6.57;;;6.17;;
8462;SDS011;4268;52.506;13.462;2023-07-29T06:11:31;5.87;;;5.57;;
8462;SDS011;4268;52.506;13.462;2023-07-29T06:13:57;5.70;;;5.30;;
8462;SDS011;4268;52.506;13.462;2023-07-29T06:16:22;5.53;;;5.23;;
8462;SDS011;4268;52.506;13.462;2023-07-29T06:18:48;5.50;;;5.10;;
8462;SDS011;4268;52.506;13.462;2023-07-29T06:21:14;5.40;;;5.10;;
8462;SDS011;4268;52.506;13.462;2023-07-29T06:23:45;4.90;;;4.60;;
8462;SDS011;4268;52.506;13.462;2023-07-29T06:26:11;4.50;;;4.20;;
8462;SDS011;4268;52.506;13.462;2023-07-29T06:28:37;4.53;;;4.23;;
8462;SDS011;4268;52.506;13.462;2023-07-29T06:31:02;4.77;;;4.47;;
8462;SDS011;4268;52.506;13.462;2023-07-29T06:33:28;5.40;;;5.10;;
8462;SDS011;4268;52.506;13.462;2023-07-29T06:35:54;5.20;;;4.90;;
8462;SDS011;4268;52.506;13.462;2023-07-29T06:38:19;4.10;;;3.90;;
8462;SDS011;4268;52.506;13.462;2023-07-29T06:40:47;6.72;;;6.25;;
8462;SDS011;4268;52.506;13.462;2023-07-29T06:43:13;3.58;;;3.38;;
8462;SDS011;4268;52.506;13.462;2023-07-29T06:45:38;4.13;;;3.67;;
8462;SDS011;4268;52.506;13.462;2023-07-29T06:48:04;4.57;;;4.38;;
8462;SDS011;4268;52.506;13.462;2023-07-29T06:50:29;4.90;;;4.65;;
8462;SDS011;4268;52.506;13.462;2023-07-29T06:52:55;3.70;;;3.40;;
8462;SDS011;4268;52.506;13.462;2023-07-29T06:55:21;3.25;;;3.15;;
8462;SDS011;4268;52.506;13.462;2023-07-29T06:57:46;3.70;;;3.50;;
8462;SDS011;4268;52.506;13.462;2023-07-29T07:00:12;2.90;;;2.70;;
8462;SDS011;4268;52.506;13.462;2023-07-29T07:02:37;3.05;;;2.95;;
8462;SDS011;4268;52.506;13.462;2023-07-29T07:05:05;3.15;;;2.97;;
8462;SDS011;4268;52.506;13.462;2023-07-29T07:07:30;3.70;;;3.40;;
8462;SDS011;4268;52.506;13.462;2023-07-29T07:09:56;3.25;;;3.15;;
8462;SDS011;4268;52.506;13.462;2023-07-29T07:12:21;3.30;;;3.10;;
8462;SDS011;4268;52.506;13.462;2023-07-29T07:14:47;3.20;;;3.10;;
8462;SDS011;4268;52.506;13.462;2023-07-29T07:17:13;3.03;;;2.92;;
8462;SDS011;4268;52.506;13.462;2023-07-29T07:19:39;3.33;;;3.13;;
8462;SDS011;4268;52.506;13.462;2023-07-29T07:22:04;3.40;;;3.20;;
8462;SDS011;4268;52.506;13.462;2023-07-29T07:24:30;3.67;;;3.43;;
8462;SDS011;4268;52.506;13.462;2023-07-29T07:26:56;3.73;;;3.47;;
8462;SDS011;4268;52.506;13.462;2023-07-29T07:29:21;3.40;;;3.20;;
8462;SDS011;4268;52.506;13.462;2023-07-29T07:31:51;3.50;;;3.30;;
8462;SDS011;4268;52.506;13.462;2023-07-29T07:34:18;3.80;;;3.60;;
8462;SDS011;4268;52.506;13.462;2023-07-29T07:36:44;4.00;;;3.80;;
8462;SDS011;4268;52.506;13.462;2023-07-29T07:39:09;3.73;;;3.53;;
8462;SDS011;4268;52.506;13.462;2023-07-29T07:41:35;4.30;;;3.90;;
8462;SDS011;4268;52.506;13.462;2023-07-29T07:44:01;4.10;;;3.90;;
8462;SDS011;4268;52.506;13.462;2023-07-29T07:46:27;4.23;;;4.03;;
8462;SDS011;4268;52.506;13.462;2023-07-29T07:48:53;3.70;;;3.50;;
8462;SDS011;4268;52.506;13.462;2023-07-29T07:51:19;3.90;;;3.70;;
8462;SDS011;4268;52.506;13.462;2023-07-29T07:53:44;3.50;;;3.30;;
8462;SDS011;4268;52.506;13.462;2023-07-29T07:56:10;3.93;;;3.63;;
8462;SDS011;4268;52.506;13.462;2023-07-29T07:58:35;3.77;;;3.57;;
8462;SDS011;4268;52.506;13.462;2023-07-29T08:01:02;3.80;;;3.60;;
8462;SDS011;4268;52.506;13.462;2023-07-29T08:03:28;4.30;;;4.03;;
8462;SDS011;4268;52.506;13.462;2023-07-29T08:05:54;3.80;;;3.60;;
8462;SDS011;4268;52.506;13.462;2023-07-29T08:08:20;4.37;;;4.07;;
8462;SDS011;4268;52.506;13.462;2023-07-29T08:10:45;5.13;;;4.73;;
8462;SDS011;4268;52.506;13.462;2023-07-29T08:13:11;4.50;;;4.20;;
8462;SDS011;4268;52.506;13.462;2023-07-29T08:15:37;4.43;;;4.03;;
8462;SDS011;4268;52.506;13.462;2023-07-29T08:18:02;4.00;;;3.80;;
8462;SDS011;4268;52.506;13.462;2023-07-29T08:20:28;3.90;;;3.70;;
8462;SDS011;4268;52.506;13.462;2023-07-29T08:22:53;3.80;;;3.57;;
8462;SDS011;4268;52.506;13.462;2023-07-29T08:25:19;3.40;;;3.20;;
8462;SDS011;4268;52.506;13.462;2023-07-29T08:27:45;4.00;;;3.80;;
8462;SDS011;4268;52.506;13.462;2023-07-29T08:30:11;4.07;;;3.70;;
8462;SDS011;4268;52.506;13.462;2023-07-29T08:32:37;4.10;;;3.70;;
8462;SDS011;4268;52.506;13.462;2023-07-29T08:35:03;3.97;;;3.60;;
8462;SDS011;4268;52.506;13.462;2023-07-29T08:37:28;3.67;;;3.40;;
8462;SDS011;4268;52.506;13.462;2023-07-29T08:39:54;3.20;;;3.10;;
8462;SDS011;4268;52.506;13.462;2023-07-29T08:42:20;4.00;;;3.70;;
8462;SDS011;4268;52.506;13.462;2023-07-29T08:44:48;3.50;;;3.30;;
8462;SDS011;4268;52.506;13.462;2023-07-29T08:47:14;3.57;;;3.37;;
8462;SDS011;4268;52.506;13.462;2023-07-29T08:49:41;3.80;;;3.53;;
8462;SDS011;4268;52.506;13.462;2023-07-29T08:52:07;3.90;;;3.70;;
8462;SDS011;4268;52.506;13.462;2023-07-29T08:54:34;3.40;;;3.20;;
8462;SDS011;4268;52.506;13.462;2023-07-29T08:57:00;4.40;;;3.70;;
8462;SDS011;4268;52.506;13.462;2023-07-29T08:59:26;3.50;;;3.30;;
8462;SDS011;4268;52.506;13.462;2023-07-29T09:01:54;3.80;;;3.60;;
8462;SDS011;4268;52.506;13.462;2023-07-29T09:04:22;3.57;;;3.37;;
8462;SDS011;4268;52.506;13.462;2023-07-29T09:06:49;3.20;;;3.10;;
8462;SDS011;4268;52.506;13.462;2023-07-29T09:09:15;3.53;;;3.23;;
8462;SDS011;4268;52.506;13.462;2023-07-29T09:11:41;3.10;;;2.90;;
8462;SDS011;4268;52.506;13.462;2023-07-29T09:14:07;3.50;;;3.20;;
8462;SDS011;4268;52.506;13.462;2023-07-29T09:16:32;3.20;;;3.07;;
8462;SDS011;4268;52.506;13.462;2023-07-29T09:19:02;3.43;;;3.23;;
8462;SDS011;4268;52.506;13.462;2023-07-29T09:21:29;3.67;;;3.37;;
8462;SDS011;4268;52.506;13.462;2023-07-29T09:23:54;3.03;;;2.90;;
8462;SDS011;4268;52.506;13.462;2023-07-29T09:26:27;21.23;;;6.03;;
8462;SDS011;4268;52.506;13.462;2023-07-29T09:28:57;4.13;;;3.93;;
8462;SDS011;4268;52.506;13.462;2023-07-29T09:31:24;3.20;;;2.90;;
8462;SDS011;4268;52.506;13.462;2023-07-29T09:34:01;3.50;;;3.30;;
8462;SDS011;4268;52.506;13.462;2023-07-29T09:36:30;3.30;;;3.20;;
8462;SDS011;4268;52.506;13.462;2023-07-29T09:38:57;3.33;;;3.03;;
8462;SDS011;4268;52.506;13.462;2023-07-29T09:41:23;3.33;;;3.13;;
8462;SDS011;4268;52.506;13.462;2023-07-29T09:43:57;3.67;;;3.27;;
8462;SDS011;4268;52.506;13.462;2023-07-29T09:46:35;3.50;;;3.30;;
8462;SDS011;4268;52.506;13.462;2023-07-29T09:49:03;3.17;;;3.00;;
8462;SDS011;4268;52.506;13.462;2023-07-29T09:51:29;3.73;;;3.53;;
8462;SDS011;4268;52.506;13.462;2023-07-29T09:53:54;3.50;;;3.30;;
8462;SDS011;4268;52.506;13.462;2023-07-29T09:56:27;3.87;;;3.23;;
8462;SDS011;4268;52.506;13.462;2023-07-29T09:58:55;3.43;;;3.13;;
8462;SDS011;4268;52.506;13.462;2023-07-29T10:01:22;3.47;;;3.27;;
8462;SDS011;4268;52.506;13.462;2023-07-29T10:03:48;3.23;;;3.03;;
8462;SDS011;4268;52.506;13.462;2023-07-29T10:06:14;3.10;;;3.00;;
8462;SDS011;4268;52.506;13.462;2023-07-29T10:08:40;3.20;;;2.83;;
8462;SDS011;4268;52.506;13.462;2023-07-29T10:11:07;2.90;;;2.80;;
8462;SDS011;4268;52.506;13.462;2023-07-29T10:13:33;2.70;;;2.60;;
8462;SDS011;4268;52.506;13.462;2023-07-29T10:15:59;2.83;;;2.70;;
8462;SDS011;4268;52.506;13.462;2023-07-29T10:18:28;3.00;;;2.80;;
8462;SDS011;4268;52.506;13.462;2023-07-29T10:20:58;3.13;;;2.93;;
8462;SDS011;4268;52.506;13.462;2023-07-29T10:23:25;3.00;;;2.80;;
8462;SDS011;4268;52.506;13.462;2023-07-29T10:25:56;3.13;;;2.93;;
8462;SDS011;4268;52.506;13.462;2023-07-29T10:28:37;2.90;;;2.80;;
8462;SDS011;4268;52.506;13.462;2023-07-29T10:31:05;2.90;;;2.80;;
8462;SDS011;4268;52.506;13.462;2023-07-29T10:33:32;2.90;;;2.60;;
8462;SDS011;4268;52.506;13.462;2023-07-29T10:35:59;2.87;;;2.67;;
8462;SDS011;4268;52.506;13.462;2023-07-29T10:38:26;2.80;;;2.70;;
8462;SDS011;4268;52.506;13.462;2023-07-29T10:40:52;2.70;;;2.60;;
8462;SDS011;4268;52.506;13.462;2023-07-29T10:43:25;2.90;;;2.80;;
8462;SDS011;4268;52.506;13.462;2023-07-29T10:46:16;2.70;;;2.60;;
8462;SDS011;4268;52.506;13.462;2023-07-29T10:51:23;2.73;;;2.63;;
8462;SDS011;4268;52.506;13.462;2023-07-29T10:53:58;3.20;;;3.00;;
8462;SDS011;4268;52.506;13.462;2023-07-29T10:56:29;2.17;;;2.13;;
8462;SDS011;4268;52.506;13.462;2023-07-29T10:58:59;2.57;;;2.47;;
8462;SDS011;4268;52.506;13.462;2023-07-29T11:01:53;3.60;;;3.00;;
8462;SDS011;4268;52.506;13.462;2023-07-29T11:04:22;2.33;;;2.23;;
8462;SDS011;4268;52.506;13.462;2023-07-29T11:17:33;2.60;;;2.50;;
8462;SDS011;4268;52.506;13.462;2023-07-29T11:20:00;3.17;;;2.97;;
8462;SDS011;4268;52.506;13.462;2023-07-29T11:22:28;2.60;;;2.50;;
8462;SDS011;4268;52.506;13.462;2023-07-29T11:24:53;2.60;;;2.40;;
8462;SDS011;4268;52.506;13.462;2023-07-29T11:27:19;2.57;;;2.37;;
8462;SDS011;4268;52.506;13.462;2023-07-29T11:29:44;2.90;;;2.70;;
8462;SDS011;4268;52.506;13.462;2023-07-29T11:32:11;3.10;;;2.90;;
8462;SDS011;4268;52.506;13.462;2023-07-29T11:34:36;3.50;;;3.30;;
8462;SDS011;4268;52.506;13.462;2023-07-29T11:37:02;3.23;;;3.00;;
8462;SDS011;4268;52.506;13.462;2023-07-29T11:39:27;3.23;;;3.03;;
8462;SDS011;4268;52.506;13.462;2023-07-29T11:41:53;3.70;;;3.40;;
8462;SDS011;4268;52.506;13.462;2023-07-29T11:44:18;3.17;;;2.97;;
8462;SDS011;4268;52.506;13.462;2023-07-29T11:46:44;3.00;;;2.87;;
8462;SDS011;4268;52.506;13.462;2023-07-29T11:49:10;2.90;;;2.70;;
8462;SDS011;4268;52.506;13.462;2023-07-29T11:51:38;2.90;;;2.70;;
8462;SDS011;4268;52.506;13.462;2023-07-29T11:54:06;8.80;;;7.90;;
8462;SDS011;4268;52.506;13.462;2023-07-29T11:56:33;3.93;;;3.73;;
8462;SDS011;4268;52.506;13.462;2023-07-29T11:58:59;5.33;;;5.03;;
8462;SDS011;4268;52.506;13.462;2023-07-29T12:01:26;4.23;;;3.93;;
8462;SDS011;4268;52.506;13.462;2023-07-29T12:03:52;3.57;;;3.43;;
8462;SDS011;4268;52.506;13.462;2023-07-29T12:06:18;3.63;;;3.43;;
8462;SDS011;4268;52.506;13.462;2023-07-29T12:08:44;4.73;;;4.53;;
8462;SDS011;4268;52.506;13.462;2023-07-29T12:11:09;5.70;;;5.40;;
8462;SDS011;4268;52.506;13.462;2023-07-29T12:13:38;9.23;;;8.83;;
8462;SDS011;4268;52.506;13.462;2023-07-29T12:16:04;10.93;;;10.43;;
8462;SDS011;4268;52.506;13.462;2023-07-29T12:18:30;12.13;;;11.53;;
8462;SDS011;4268;52.506;13.462;2023-07-29T12:20:56;11.30;;;10.80;;
8462;SDS011;4268;52.506;13.462;2023-07-29T12:23:25;9.40;;;9.00;;
8462;SDS011;4268;52.506;13.462;2023-07-29T12:25:52;6.50;;;6.20;;
8462;SDS011;4268;52.506;13.462;2023-07-29T12:28:22;5.87;;;5.57;;
8462;SDS011;4268;52.506;13.462;2023-07-29T12:30:48;6.07;;;5.67;;
8462;SDS011;4268;52.506;13.462;2023-07-29T12:33:33;5.03;;;4.77;;
8462;SDS011;4268;52.506;13.462;2023-07-29T12:36:00;6.30;;;6.00;;
8462;SDS011;4268;52.506;13.462;2023-07-29T12:38:27;6.90;;;6.57;;
8462;SDS011;4268;52.506;13.462;2023-07-29T12:40:53;8.97;;;8.50;;
8462;SDS011;4268;52.506;13.462;2023-07-29T12:43:19;8.20;;;7.80;;
8462;SDS011;4268;52.506;13.462;2023-07-29T12:45:45;9.60;;;9.20;;
8462;SDS011;4268;52.506;13.462;2023-07-29T12:48:10;8.87;;;8.47;;
8462;SDS011;4268;52.506;13.462;2023-07-29T12:50:37;6.73;;;6.43;;
8462;SDS011;4268;52.506;13.462;2023-07-29T12:53:04;4.87;;;4.57;;
8462;SDS011;4268;52.506;13.462;2023-07-29T12:55:30;4.73;;;4.50;;
8462;SDS011;4268;52.506;13.462;2023-07-29T12:57:55;5.50;;;5.20;;
8462;SDS011;4268;52.506;13.462;2023-07-29T13:00:23;5.77;;;5.27;;
8462;SDS011;4268;52.506;13.462;2023-07-29T13:02:48;4.37;;;4.07;;
8462;SDS011;4268;52.506;13.462;2023-07-29T13:05:14;3.30;;;3.10;;
8462;SDS011;4268;52.506;13.462;2023-07-29T13:07:39;3.20;;;3.00;;
8462;SDS011;4268;52.506;13.462;2023-07-29T13:10:06;4.03;;;3.83;;
8462;SDS011;4268;52.506;13.462;2023-07-29T13:12:32;5.93;;;5.63;;
8462;SDS011;4268;52.506;13.462;2023-07-29T13:14:58;7.17;;;6.77;;
8462;SDS011;4268;52.506;13.462;2023-07-29T13:17:24;4.70;;;4.50;;
8462;SDS011;4268;52.506;13.462;2023-07-29T13:19:50;4.20;;;4.00;;
8462;SDS011;4268;52.506;13.462;2023-07-29T13:22:16;4.93;;;4.63;;
8462;SDS011;4268;52.506;13.462;2023-07-29T13:24:42;3.90;;;3.70;;
8462;SDS011;4268;52.506;13.462;2023-07-29T13:27:07;3.40;;;3.10;;
8462;SDS011;4268;52.506;13.462;2023-07-29T13:29:32;3.10;;;3.00;;
8462;SDS011;4268;52.506;13.462;2023-07-29T13:31:58;3.40;;;3.20;;
8462;SDS011;4268;52.506;13.462;2023-07-29T13:34:23;3.60;;;3.40;;
8462;SDS011;4268;52.506;13.462;2023-07-29T13:36:49;3.30;;;3.10;;
8462;SDS011;4268;52.506;13.462;2023-07-29T13:39:15;3.40;;;3.20;;
8462;SDS011;4268;52.506;13.462;2023-07-29T13:41:40;3.73;;;3.20;;
8462;SDS011;4268;52.506;13.462;2023-07-29T13:44:06;3.70;;;3.50;;
8462;SDS011;4268;52.506;13.462;2023-07-29T13:46:31;4.30;;;4.10;;
8462;SDS011;4268;52.506;13.462;2023-07-29T13:48:57;4.43;;;4.10;;
8462;SDS011;4268;52.506;13.462;2023-07-29T13:51:22;4.00;;;3.70;;
8462;SDS011;4268;52.506;13.462;2023-07-29T13:53:48;4.10;;;3.80;;
8462;SDS011;4268;52.506;13.462;2023-07-29T13:56:13;3.90;;;3.70;;
8462;SDS011;4268;52.506;13.462;2023-07-29T13:58:39;4.30;;;4.10;;
8462;SDS011;4268;52.506;13.462;2023-07-29T14:01:05;4.87;;;4.17;;
8462;SDS011;4268;52.506;13.462;2023-07-29T14:03:31;4.47;;;4.27;;
8462;SDS011;4268;52.506;13.462;2023-07-29T14:05:56;4.40;;;4.10;;
8462;SDS011;4268;52.506;13.462;2023-07-29T14:08:21;3.57;;;3.30;;
8462;SDS011;4268;52.506;13.462;2023-07-29T14:10:48;3.40;;;3.20;;
8462;SDS011;4268;52.506;13.462;2023-07-29T14:13:16;2.80;;;2.70;;
8462;SDS011;4268;52.506;13.462;2023-07-29T14:15:42;2.60;;;2.40;;
8462;SDS011;4268;52.506;13.462;2023-07-29T14:18:07;2.50;;;2.30;;
8462;SDS011;4268;52.506;13.462;2023-07-29T14:20:33;2.43;;;2.30;;
8462;SDS011;4268;52.506;13.462;2023-07-29T14:22:58;2.47;;;2.27;;
8462;SDS011;4268;52.506;13.462;2023-07-29T14:25:24;2.30;;;2.20;;
8462;SDS011;4268;52.506;13.462;2023-07-29T14:27:50;2.57;;;2.47;;
8462;SDS011;4268;52.506;13.462;2023-07-29T14:30:15;2.60;;;2.50;;
8462;SDS011;4268;52.506;13.462;2023-07-29T14:32:41;2.40;;;2.30;;
8462;SDS011;4268;52.506;13.462;2023-07-29T14:35:06;2.60;;;2.50;;
8462;SDS011;4268;52.506;13.462;2023-07-29T14:37:33;2.30;;;2.20;;
8462;SDS011;4268;52.506;13.462;2023-07-29T14:39:59;2.33;;;2.23;;
8462;SDS011;4268;52.506;13.462;2023-07-29T14:42:24;2.47;;;2.37;;
8462;SDS011;4268;52.506;13.462;2023-07-29T14:44:50;2.63;;;2.43;;
8462;SDS011;4268;52.506;13.462;2023-07-29T14:47:15;2.90;;;2.70;;
8462;SDS011;4268;52.506;13.462;2023-07-29T14:49:41;2.70;;;2.60;;
8462;SDS011;4268;52.506;13.462;2023-07-29T14:52:06;2.50;;;2.40;;
8462;SDS011;4268;52.506;13.462;2023-07-29T14:54:32;2.23;;;2.13;;
8462;SDS011;4268;52.506;13.462;2023-07-29T14:56:58;2.80;;;2.70;;
8462;SDS011;4268;52.506;13.462;2023-07-29T14:59:23;2.93;;;2.83;;
8462;SDS011;4268;52.506;13.462;2023-07-29T15:01:48;3.60;;;3.40;;
8462;SDS011;4268;52.506;13.462;2023-07-29T15:04:14;4.73;;;4.43;;
8462;SDS011;4268;52.506;13.462;2023-07-29T15:06:39;4.50;;;4.30;;
8462;SDS011;4268;52.506;13.462;2023-07-29T15:09:05;4.23;;;4.03;;
8462;SDS011;4268;52.506;13.462;2023-07-29T15:11:31;4.50;;;4.30;;